Time;durP1;ratioP1;P1;durP2;ratioP2;P2;SDS_P1;SDS_P2;PMS_P1;PMS_P2;Temp;Humidity;BMP_temperature;BMP_pressure;BME280_temperature;BME280_humidity;BME280_pressure;Samples;Min_cycle;Max_cycle;Signal;HPM_P1;HPM_P2
2020/12/03 00:02:15;;;;;;;3.83;2.78;;;;;;;;;;6306384;22;20056;-89
2020/12/03 00:04:43;;;;;;;2.72;2.00;;;;;;;;;;6308345;22;20007;-90
2020/12/03 00:07:09;;;;;;;3.08;2.08;;;;;;;;;;6306629;22;20011;-89
2020/12/03 00:09:35;;;;;;;3.25;2.13;;;;;;;;;;6306414;22;20082;-89
2020/12/03 00:12:01;;;;;;;2.28;2.08;;;;;;;;;;6308268;22;20008;-90
2020/12/03 00:14:27;;;;;;;3.53;2.15;;;;;;;;;;6306464;22;20033;-90
2020/12/03 00:16:54;;;;;;;2.45;2.10;;;;;;;;;;6306640;22;20056;-89
2020/12/03 00:19:22;;;;;;;2.90;2.13;;;;;;;;;;6308268;22;20003;-89
2020/12/03 00:21:49;;;;;;;2.17;1.80;;;;;;;;;;6306512;22;20082;-89
2020/12/03 00:24:21;;;;;;;2.05;1.58;;;;;;;;;;6306451;22;20028;-89
2020/12/03 00:26:47;;;;;;;3.40;1.90;;;;;;;;;;6306826;22;20014;-89
2020/12/03 00:29:13;;;;;;;1.88;1.45;;;;;;;;;;6308340;22;20003;-90
2020/12/03 00:31:42;;;;;;;2.08;1.85;;;;;;;;;;6306557;22;20026;-89
2020/12/03 00:34:09;;;;;;;1.58;1.48;;;;;;;;;;6308173;22;20342;-90
2020/12/03 00:36:35;;;;;;;2.28;1.40;;;;;;;;;;6307337;22;20003;-89
2020/12/03 00:39:02;;;;;;;1.70;1.55;;;;;;;;;;6308371;22;20051;-89
2020/12/03 00:41:28;;;;;;;1.85;1.38;;;;;;;;;;6309927;22;20010;-90
2020/12/03 00:43:54;;;;;;;3.10;1.70;;;;;;;;;;6310104;22;20025;-89
2020/12/03 00:46:20;;;;;;;1.73;1.60;;;;;;;;;;6309754;22;20006;-89
2020/12/03 00:48:46;;;;;;;2.05;1.45;;;;;;;;;;6308456;22;19999;-89
2020/12/03 00:51:13;;;;;;;1.35;1.25;;;;;;;;;;6309946;22;19999;-89
2020/12/03 00:53:40;;;;;;;2.13;1.45;;;;;;;;;;6309691;22;20010;-90
2020/12/03 00:56:06;;;;;;;1.75;1.35;;;;;;;;;;6310446;22;20438;-90
2020/12/03 00:58:32;;;;;;;1.15;0.82;;;;;;;;;;6308101;22;20015;-89
2020/12/03 01:00:58;;;;;;;1.67;1.48;;;;;;;;;;6307580;22;20004;-89
2020/12/03 01:03:24;;;;;;;2.58;1.80;;;;;;;;;;6307830;22;20026;-89
2020/12/03 01:05:50;;;;;;;1.42;1.30;;;;;;;;;;6307861;22;19999;-90
2020/12/03 01:08:16;;;;;;;1.40;1.20;;;;;;;;;;6307619;22;19999;-91
2020/12/03 01:10:42;;;;;;;1.95;1.33;;;;;;;;;;6307491;22;20036;-89
2020/12/03 01:13:08;;;;;;;1.73;1.27;;;;;;;;;;6307488;22;20011;-89
2020/12/03 01:15:35;;;;;;;1.38;1.17;;;;;;;;;;6306824;22;20010;-89
2020/12/03 01:18:01;;;;;;;1.30;1.20;;;;;;;;;;6307403;22;20003;-89
2020/12/03 01:20:28;;;;;;;2.03;1.30;;;;;;;;;;6309378;22;19999;-89
2020/12/03 01:22:54;;;;;;;1.15;1.00;;;;;;;;;;6307647;22;20427;-89
2020/12/03 01:25:21;;;;;;;4.22;1.70;;;;;;;;;;6307482;22;20010;-89
2020/12/03 01:27:48;;;;;;;1.85;1.30;;;;;;;;;;6307639;22;20391;-90
2020/12/03 01:30:14;;;;;;;1.40;1.25;;;;;;;;;;6307324;22;20007;-90
2020/12/03 01:32:41;;;;;;;1.65;1.55;;;;;;;;;;6307216;22;20386;-90
2020/12/03 01:35:08;;;;;;;1.17;1.10;;;;;;;;;;6307118;22;20462;-90
2020/12/03 01:37:34;;;;;;;1.25;1.10;;;;;;;;;;6309075;22;20003;-89
2020/12/03 01:40:00;;;;;;;2.72;1.20;;;;;;;;;;6306851;22;20045;-89
2020/12/03 01:42:26;;;;;;;3.15;1.08;;;;;;;;;;6308627;22;19995;-90
2020/12/03 01:44:54;;;;;;;1.85;1.13;;;;;;;;;;6306022;22;20430;-90
2020/12/03 01:47:30;;;;;;;1.23;0.88;;;;;;;;;;6307563;22;19992;-90
2020/12/03 01:49:56;;;;;;;1.48;1.38;;;;;;;;;;6307590;22;20003;-89
2020/12/03 01:52:22;;;;;;;2.25;0.90;;;;;;;;;;6309558;22;20053;-90
2020/12/03 01:54:48;;;;;;;1.25;0.90;;;;;;;;;;6307267;22;20462;-89
2020/12/03 01:57:17;;;;;;;4.65;1.60;;;;;;;;;;6308289;22;20027;-89
2020/12/03 01:59:48;;;;;;;2.88;1.00;;;;;;;;;;6309935;22;20007;-89
2020/12/03 02:02:14;;;;;;;1.42;1.17;;;;;;;;;;6307395;22;20048;-89
2020/12/03 02:04:40;;;;;;;1.25;0.88;;;;;;;;;;6307066;22;19999;-89
2020/12/03 02:07:11;;;;;;;1.42;1.00;;;;;;;;;;6306995;22;20007;-89
2020/12/03 02:09:37;;;;;;;0.93;0.82;;;;;;;;;;6307100;22;20003;-89
2020/12/03 02:12:03;;;;;;;0.88;0.88;;;;;;;;;;6306991;22;20480;-90
2020/12/03 02:14:30;;;;;;;2.10;1.70;;;;;;;;;;6307075;22;20038;-90
2020/12/03 02:16:56;;;;;;;0.93;0.90;;;;;;;;;;6306739;22;20029;-89
2020/12/03 02:19:25;;;;;;;1.20;1.10;;;;;;;;;;6307077;22;20007;-90
2020/12/03 02:22:02;;;;;;;1.00;0.88;;;;;;;;;;6307044;22;20045;-89
2020/12/03 02:24:32;;;;;;;0.70;0.70;;;;;;;;;;6308919;22;20002;-90
2020/12/03 02:26:59;;;;;;;1.10;0.80;;;;;;;;;;6308702;22;20038;-89
2020/12/03 02:29:26;;;;;;;1.45;0.80;;;;;;;;;;6308696;22;20011;-90
2020/12/03 02:31:52;;;;;;;1.02;1.00;;;;;;;;;;6308376;22;20007;-89
2020/12/03 02:34:19;;;;;;;0.90;0.88;;;;;;;;;;6306846;22;20100;-90
2020/12/03 02:36:50;;;;;;;1.67;0.85;;;;;;;;;;6306478;22;19999;-90
2020/12/03 02:39:16;;;;;;;1.95;0.88;;;;;;;;;;6306695;22;20042;-90
2020/12/03 02:41:42;;;;;;;1.45;0.93;;;;;;;;;;6306482;22;20004;-90
2020/12/03 02:44:08;;;;;;;1.52;1.05;;;;;;;;;;6305867;22;20005;-89
2020/12/03 02:46:34;;;;;;;0.70;0.70;;;;;;;;;;6308386;22;19999;-89
2020/12/03 02:49:00;;;;;;;1.17;1.00;;;;;;;;;;6307153;22;20491;-89
2020/12/03 02:51:26;;;;;;;0.85;0.80;;;;;;;;;;6306367;22;20316;-90
2020/12/03 02:53:52;;;;;;;0.50;0.43;;;;;;;;;;6308240;22;20330;-90
2020/12/03 02:56:18;;;;;;;0.90;0.82;;;;;;;;;;6307971;22;20378;-88
2020/12/03 02:58:44;;;;;;;0.88;0.88;;;;;;;;;;6308478;22;20415;-89
2020/12/03 03:01:10;;;;;;;0.88;0.73;;;;;;;;;;6306952;22;20338;-89
2020/12/03 03:03:36;;;;;;;0.65;0.65;;;;;;;;;;6306696;22;19999;-89
2020/12/03 03:06:02;;;;;;;0.95;0.85;;;;;;;;;;6308752;22;20000;-89
2020/12/03 03:08:28;;;;;;;0.80;0.63;;;;;;;;;;6306781;22;20090;-89
2020/12/03 03:10:54;;;;;;;1.05;0.95;;;;;;;;;;6308484;22;20003;-89
2020/12/03 03:13:21;;;;;;;2.30;0.90;;;;;;;;;;6306523;22;20031;-89
2020/12/03 03:15:47;;;;;;;0.75;0.63;;;;;;;;;;6306625;22;20049;-88
2020/12/03 03:18:13;;;;;;;0.65;0.50;;;;;;;;;;6308505;22;20075;-88
2020/12/03 03:20:39;;;;;;;0.60;0.60;;;;;;;;;;6305676;22;20003;-89
2020/12/03 03:23:05;;;;;;;1.02;0.60;;;;;;;;;;6308440;22;20023;-89
2020/12/03 03:25:31;;;;;;;1.15;0.90;;;;;;;;;;6306590;22;20339;-89
2020/12/03 03:27:57;;;;;;;0.40;0.40;;;;;;;;;;6306412;22;20045;-89
2020/12/03 03:30:23;;;;;;;0.60;0.60;;;;;;;;;;6306467;22;20014;-88
2020/12/03 03:32:50;;;;;;;0.50;0.50;;;;;;;;;;6306461;22;20156;-90
2020/12/03 03:35:17;;;;;;;0.35;0.35;;;;;;;;;;6306527;22;20343;-89
2020/12/03 03:37:43;;;;;;;0.68;0.50;;;;;;;;;;6306319;22;20053;-89
2020/12/03 03:40:09;;;;;;;1.45;1.35;;;;;;;;;;6306477;22;20034;-90
2020/12/03 03:42:35;;;;;;;2.17;0.50;;;;;;;;;;6306500;22;20443;-89
2020/12/03 03:45:02;;;;;;;0.50;0.50;;;;;;;;;;6308138;22;20052;-88
2020/12/03 03:47:28;;;;;;;1.42;1.10;;;;;;;;;;6306620;22;20080;-90
2020/12/03 03:49:54;;;;;;;0.63;0.50;;;;;;;;;;6306429;22;20015;-91
2020/12/03 03:52:20;;;;;;;0.60;0.60;;;;;;;;;;6308776;22;20010;-89
2020/12/03 03:54:46;;;;;;;0.40;0.40;;;;;;;;;;6306356;22;20007;-88
2020/12/03 03:57:12;;;;;;;1.95;1.67;;;;;;;;;;6307422;22;20010;-90
2020/12/03 03:59:38;;;;;;;0.30;0.30;;;;;;;;;;6305942;22;19991;-89
2020/12/03 04:02:04;;;;;;;0.50;0.50;;;;;;;;;;6306143;22;20003;-88
2020/12/03 04:04:30;;;;;;;0.80;0.20;;;;;;;;;;6306094;22;20557;-89
2020/12/03 04:06:56;;;;;;;0.75;0.60;;;;;;;;;;6281565;22;20011;-89
2020/12/03 04:09:22;;;;;;;1.35;0.65;;;;;;;;;;6310048;22;20461;-88
2020/12/03 04:11:49;;;;;;;1.25;0.50;;;;;;;;;;6308239;22;20064;-90
2020/12/03 04:14:15;;;;;;;0.47;0.40;;;;;;;;;;6308323;22;20102;-89
2020/12/03 04:16:41;;;;;;;1.13;0.50;;;;;;;;;;6309863;22;20027;-88
2020/12/03 04:19:07;;;;;;;1.20;0.98;;;;;;;;;;6307992;22;20003;-89
2020/12/03 04:21:36;;;;;;;0.70;0.65;;;;;;;;;;6308084;22;20005;-90
2020/12/03 04:24:03;;;;;;;0.65;0.50;;;;;;;;;;6308093;22;20003;-89
2020/12/03 04:26:29;;;;;;;0.75;0.45;;;;;;;;;;6307885;22;20011;-89
2020/12/03 04:28:55;;;;;;;0.50;0.40;;;;;;;;;;6309991;22;20034;-89
2020/12/03 04:31:21;;;;;;;0.40;0.40;;;;;;;;;;6307702;22;20003;-88
2020/12/03 04:33:47;;;;;;;0.25;0.25;;;;;;;;;;6308015;22;20003;-90
2020/12/03 04:36:13;;;;;;;0.30;0.30;;;;;;;;;;6309115;22;19995;-89
2020/12/03 04:38:39;;;;;;;0.45;0.38;;;;;;;;;;6309447;22;20003;-88
2020/12/03 04:41:05;;;;;;;0.77;0.40;;;;;;;;;;6307855;22;20029;-89
2020/12/03 04:43:45;;;;;;;0.22;0.20;;;;;;;;;;6307698;22;20004;-89
2020/12/03 04:46:30;;;;;;;1.98;0.55;;;;;;;;;;6308073;22;20078;-89
2020/12/03 04:49:23;;;;;;;0.30;0.30;;;;;;;;;;6307794;22;20007;-90
2020/12/03 04:51:52;;;;;;;0.35;0.30;;;;;;;;;;6307000;22;20397;-88
2020/12/03 04:54:37;;;;;;;0.98;0.52;;;;;;;;;;6309782;22;19999;-89
2020/12/03 04:57:22;;;;;;;1.00;0.40;;;;;;;;;;6307182;22;20003;-89
2020/12/03 05:00:11;;;;;;;0.63;0.52;;;;;;;;;;6307794;22;20000;-89
2020/12/03 05:03:07;;;;;;;0.30;0.30;;;;;;;;;;6288628;22;20003;-89
2020/12/03 05:05:36;;;;;;;0.32;0.32;;;;;;;;;;6309522;22;20000;-88
2020/12/03 05:08:05;;;;;;;0.38;0.38;;;;;;;;;;6307524;22;20007;-89
2020/12/03 05:10:40;;;;;;;0.60;0.60;;;;;;;;;;6309590;22;20005;-89
2020/12/03 05:13:13;;;;;;;0.52;0.52;;;;;;;;;;6309635;22;20046;-89
2020/12/03 05:15:40;;;;;;;1.27;0.50;;;;;;;;;;6307726;22;20460;-88
2020/12/03 05:18:06;;;;;;;0.95;0.50;;;;;;;;;;6307007;22;20004;-88
2020/12/03 05:20:32;;;;;;;0.88;0.75;;;;;;;;;;6306617;22;20003;-88
2020/12/03 05:23:18;;;;;;;0.47;0.43;;;;;;;;;;6307336;22;20049;-89
2020/12/03 05:25:45;;;;;;;0.52;0.50;;;;;;;;;;6306734;22;20010;-89
2020/12/03 05:28:17;;;;;;;0.28;0.28;;;;;;;;;;6307080;22;20057;-90
2020/12/03 05:30:43;;;;;;;0.22;0.22;;;;;;;;;;6309324;22;20052;-89
2020/12/03 05:33:09;;;;;;;0.63;0.35;;;;;;;;;;6307100;22;20094;-89
2020/12/03 05:35:38;;;;;;;0.70;0.40;;;;;;;;;;6309123;22;20426;-89
2020/12/03 05:38:06;;;;;;;0.80;0.80;;;;;;;;;;6307263;22;20039;-90
2020/12/03 05:40:32;;;;;;;0.85;0.32;;;;;;;;;;6307205;22;20339;-89
2020/12/03 05:42:58;;;;;;;0.30;0.30;;;;;;;;;;6307523;22;20086;-89
2020/12/03 05:45:29;;;;;;;0.40;0.35;;;;;;;;;;6307089;22;20003;-89
2020/12/03 05:47:57;;;;;;;0.73;0.47;;;;;;;;;;6307481;22;20003;-89
2020/12/03 05:50:34;;;;;;;0.30;0.30;;;;;;;;;;6308814;22;20426;-89
2020/12/03 05:53:05;;;;;;;0.60;0.60;;;;;;;;;;6307165;22;20007;-89
2020/12/03 05:55:33;;;;;;;0.95;0.68;;;;;;;;;;6309075;22;20386;-89
2020/12/03 05:58:12;;;;;;;1.40;1.00;;;;;;;;;;6308779;22;20010;-89
2020/12/03 06:00:39;;;;;;;0.30;0.30;;;;;;;;;;6307123;22;20343;-89
2020/12/03 06:03:08;;;;;;;0.55;0.40;;;;;;;;;;6307130;22;20358;-89
2020/12/03 06:05:46;;;;;;;0.82;0.82;;;;;;;;;;6307098;22;20045;-89
2020/12/03 06:08:18;;;;;;;0.30;0.30;;;;;;;;;;6306979;22;20106;-89
2020/12/03 06:10:53;;;;;;;0.60;0.60;;;;;;;;;;6307280;22;20011;-89
2020/12/03 06:13:19;;;;;;;0.68;0.40;;;;;;;;;;6306884;22;20401;-89
2020/12/03 06:15:48;;;;;;;0.30;0.30;;;;;;;;;;6308625;22;20029;-90
2020/12/03 06:18:21;;;;;;;0.40;0.30;;;;;;;;;;6306828;22;19999;-89
2020/12/03 06:21:02;;;;;;;0.57;0.50;;;;;;;;;;6306984;22;20488;-89
2020/12/03 06:23:43;;;;;;;1.00;0.70;;;;;;;;;;6306618;22;20003;-90
2020/12/03 06:26:28;;;;;;;0.75;0.50;;;;;;;;;;6308144;22;20000;-89
2020/12/03 06:29:09;;;;;;;1.08;0.50;;;;;;;;;;6308595;22;20003;-89
2020/12/03 06:31:44;;;;;;;0.40;0.20;;;;;;;;;;6306530;22;20090;-91
2020/12/03 06:34:19;;;;;;;0.25;0.25;;;;;;;;;;6304393;22;20434;-90
2020/12/03 06:36:56;;;;;;;1.65;0.35;;;;;;;;;;6306162;22;20008;-89
2020/12/03 06:39:34;;;;;;;0.70;0.50;;;;;;;;;;6305838;22;19999;-92
2020/12/03 06:42:15;;;;;;;0.40;0.30;;;;;;;;;;6307592;22;20006;-90
2020/12/03 06:44:48;;;;;;;0.22;0.22;;;;;;;;;;6308303;22;20069;-88
2020/12/03 06:47:33;;;;;;;1.00;0.87;;;;;;;;;;6305829;22;20009;-89
2020/12/03 06:50:05;;;;;;;2.13;0.75;;;;;;;;;;6305797;22;20233;-89
2020/12/03 06:52:31;;;;;;;1.08;0.77;;;;;;;;;;6305723;22;20362;-89
2020/12/03 06:55:10;;;;;;;1.42;0.77;;;;;;;;;;6308257;22;20415;-88
2020/12/03 06:58:02;;;;;;;1.33;0.90;;;;;;;;;;6305729;22;20004;-89
2020/12/03 07:00:32;;;;;;;1.23;0.77;;;;;;;;;;6302295;22;20010;-88
2020/12/03 07:03:14;;;;;;;1.15;0.55;;;;;;;;;;6305843;22;20003;-89
2020/12/03 07:05:58;;;;;;;0.88;0.80;;;;;;;;;;6306136;22;20449;-89
2020/12/03 07:08:28;;;;;;;1.58;1.48;;;;;;;;;;6305885;22;20011;-88
2020/12/03 07:11:26;;;;;;;1.85;1.27;;;;;;;;;;6305521;22;20011;-86
2020/12/03 07:14:04;;;;;;;0.90;0.88;;;;;;;;;;6223331;22;20007;-87
2020/12/03 07:16:40;;;;;;;1.75;0.80;;;;;;;;;;6305721;22;20008;-89
2020/12/03 07:19:15;;;;;;;3.13;0.90;;;;;;;;;;6305324;22;20014;-87
2020/12/03 07:21:50;;;;;;;0.70;0.70;;;;;;;;;;6307888;22;20033;-89
2020/12/03 07:24:20;;;;;;;0.75;0.70;;;;;;;;;;6305850;22;20449;-86
2020/12/03 07:26:49;;;;;;;0.98;0.90;;;;;;;;;;6307409;22;20323;-86
2020/12/03 07:29:34;;;;;;;0.75;0.70;;;;;;;;;;6306045;22;20342;-86
2020/12/03 07:32:01;;;;;;;2.22;0.95;;;;;;;;;;6301142;22;20074;-88
2020/12/03 07:34:29;;;;;;;2.35;1.45;;;;;;;;;;6301722;22;20687;-86
2020/12/03 07:36:59;;;;;;;2.30;1.10;;;;;;;;;;6302368;22;20007;-88
2020/12/03 07:39:29;;;;;;;1.20;1.02;;;;;;;;;;6304047;22;20114;-85
2020/12/03 07:41:57;;;;;;;1.25;0.98;;;;;;;;;;6304965;22;20077;-86
2020/12/03 07:44:27;;;;;;;8.68;3.53;;;;;;;;;;6305754;22;20007;-87
2020/12/03 07:46:54;;;;;;;3.10;1.90;;;;;;;;;;6305992;22;20003;-87
2020/12/03 07:49:39;;;;;;;4.30;1.40;;;;;;;;;;6307881;22;20031;-88
2020/12/03 07:52:23;;;;;;;2.60;1.20;;;;;;;;;;6304313;22;20030;-85
2020/12/03 07:54:50;;;;;;;0.80;0.80;;;;;;;;;;6305851;22;20304;-86
2020/12/03 07:57:39;;;;;;;1.83;1.17;;;;;;;;;;6301134;22;20015;-87
2020/12/03 08:00:24;;;;;;;5.95;2.17;;;;;;;;;;6289345;22;20034;-89
2020/12/03 08:02:51;;;;;;;4.47;1.42;;;;;;;;;;6306508;22;20007;-88
2020/12/03 08:05:36;;;;;;;1.92;1.15;;;;;;;;;;6304040;22;20003;-88
2020/12/03 08:08:02;;;;;;;1.27;1.17;;;;;;;;;;6303911;22;20039;-88
2020/12/03 08:10:35;;;;;;;1.95;1.30;;;;;;;;;;6305598;22;20061;-88
2020/12/03 08:13:19;;;;;;;5.80;2.08;;;;;;;;;;6306112;22;19999;-87
2020/12/03 08:15:54;;;;;;;2.42;1.50;;;;;;;;;;6306836;22;20335;-88
2020/12/03 08:18:42;;;;;;;3.10;1.63;;;;;;;;;;6305155;22;20128;-88
2020/12/03 08:21:09;;;;;;;1.30;0.90;;;;;;;;;;6305658;22;20006;-86
2020/12/03 08:23:35;;;;;;;4.78;1.60;;;;;;;;;;6308518;22;20007;-87
2020/12/03 08:26:02;;;;;;;1.27;1.17;;;;;;;;;;6305696;22;20008;-87
2020/12/03 08:28:29;;;;;;;1.05;0.93;;;;;;;;;;6306735;22;19999;-88
2020/12/03 08:30:56;;;;;;;1.58;0.95;;;;;;;;;;6306646;22;20014;-86
2020/12/03 08:33:35;;;;;;;1.88;1.27;;;;;;;;;;6304580;22;20015;-86
2020/12/03 08:36:03;;;;;;;2.10;1.50;;;;;;;;;;6307664;22;20011;-88
2020/12/03 08:38:39;;;;;;;1.25;1.13;;;;;;;;;;6304045;22;20091;-87
2020/12/03 08:41:08;;;;;;;3.85;1.50;;;;;;;;;;6306027;22;20029;-88
2020/12/03 08:43:43;;;;;;;5.97;2.00;;;;;;;;;;6307170;22;19999;-91
2020/12/03 08:46:16;;;;;;;1.85;1.08;;;;;;;;;;6305360;22;20106;-87
2020/12/03 08:48:43;;;;;;;3.30;1.73;;;;;;;;;;6307855;22;20007;-86
2020/12/03 08:51:11;;;;;;;2.67;2.10;;;;;;;;;;6305615;22;20454;-86
2020/12/03 08:53:38;;;;;;;2.45;1.92;;;;;;;;;;6307226;22;20003;-89
2020/12/03 08:56:17;;;;;;;2.70;1.92;;;;;;;;;;6306917;22;20088;-86
2020/12/03 08:58:50;;;;;;;2.45;1.70;;;;;;;;;;6302696;22;20074;-87
2020/12/03 09:01:17;;;;;;;3.13;1.75;;;;;;;;;;6304831;22;20003;-87
2020/12/03 09:03:44;;;;;;;3.10;2.33;;;;;;;;;;6304561;22;20013;-88
2020/12/03 09:06:12;;;;;;;2.25;1.90;;;;;;;;;;6306957;22;19999;-86
2020/12/03 09:08:39;;;;;;;3.13;2.15;;;;;;;;;;6304475;22;20090;-88
2020/12/03 09:11:05;;;;;;;3.90;2.20;;;;;;;;;;6305816;22;20048;-87
2020/12/03 09:13:31;;;;;;;4.55;1.92;;;;;;;;;;6305990;22;20442;-87
2020/12/03 09:15:58;;;;;;;2.25;1.88;;;;;;;;;;6305303;22;20720;-87
2020/12/03 09:18:24;;;;;;;2.95;1.65;;;;;;;;;;6301501;22;20007;-87
2020/12/03 09:20:50;;;;;;;2.47;2.05;;;;;;;;;;6305757;22;20728;-88
2020/12/03 09:23:17;;;;;;;7.50;2.42;;;;;;;;;;6304505;22;20014;-87
2020/12/03 09:25:43;;;;;;;2.97;1.25;;;;;;;;;;6306203;22;20006;-87
2020/12/03 09:28:09;;;;;;;2.80;1.90;;;;;;;;;;6305854;22;20011;-87
2020/12/03 09:30:36;;;;;;;2.50;2.22;;;;;;;;;;6306324;22;20011;-87
2020/12/03 09:33:03;;;;;;;2.72;2.33;;;;;;;;;;6305633;22;20027;-87
2020/12/03 09:35:30;;;;;;;1.98;1.75;;;;;;;;;;6304693;22;20038;-88
2020/12/03 09:37:58;;;;;;;4.38;2.08;;;;;;;;;;6307124;22;20090;-87
2020/12/03 09:40:25;;;;;;;4.95;2.22;;;;;;;;;;6306215;22;20008;-86
2020/12/03 09:42:52;;;;;;;2.60;2.40;;;;;;;;;;6304810;22;20494;-86
2020/12/03 09:45:20;;;;;;;4.82;2.88;;;;;;;;;;6305413;22;20041;-85
2020/12/03 09:47:46;;;;;;;4.43;3.30;;;;;;;;;;6304469;22;20007;-84
2020/12/03 09:50:13;;;;;;;2.63;2.42;;;;;;;;;;6303488;22;20011;-86
2020/12/03 09:52:41;;;;;;;2.63;1.73;;;;;;;;;;6305891;22;20003;-85
2020/12/03 09:55:08;;;;;;;5.78;2.83;;;;;;;;;;6306520;22;20003;-85
2020/12/03 09:57:34;;;;;;;6.00;2.63;;;;;;;;;;6305718;22;20003;-86
2020/12/03 10:00:01;;;;;;;1.75;1.65;;;;;;;;;;6305000;22;20004;-86
2020/12/03 10:02:59;;;;;;;4.65;2.33;;;;;;;;;;6307032;22;20385;-86
2020/12/03 10:05:25;;;;;;;5.60;2.78;;;;;;;;;;6222050;22;20007;-88
2020/12/03 10:08:10;;;;;;;2.58;2.33;;;;;;;;;;6304778;22;20102;-88
2020/12/03 10:10:47;;;;;;;3.80;2.45;;;;;;;;;;6305447;22;20011;-87
2020/12/03 10:13:33;;;;;;;5.63;2.47;;;;;;;;;;6304446;22;20346;-88
2020/12/03 10:16:01;;;;;;;3.22;2.10;;;;;;;;;;6307450;22;20030;-87
2020/12/03 10:18:38;;;;;;;1.60;1.50;;;;;;;;;;6305291;22;20490;-86
2020/12/03 10:21:04;;;;;;;3.60;2.53;;;;;;;;;;6307602;22;19995;-88
2020/12/03 10:23:33;;;;;;;3.15;2.17;;;;;;;;;;6305622;22;20538;-87
2020/12/03 10:26:04;;;;;;;2.60;1.92;;;;;;;;;;6305484;22;20007;-87
2020/12/03 10:28:37;;;;;;;2.03;1.55;;;;;;;;;;6303914;22;20010;-88
2020/12/03 10:31:03;;;;;;;1.58;1.48;;;;;;;;;;6305430;22;20003;-86
2020/12/03 10:33:35;;;;;;;2.40;2.20;;;;;;;;;;6306753;22;20015;-91
2020/12/03 10:36:03;;;;;;;3.53;1.92;;;;;;;;;;6306659;22;20011;-89
2020/12/03 10:38:38;;;;;;;5.75;1.50;;;;;;;;;;6305268;22;20789;-90
2020/12/03 10:41:05;;;;;;;3.78;1.92;;;;;;;;;;6305299;22;20010;-89
2020/12/03 10:43:34;;;;;;;2.17;1.98;;;;;;;;;;6303862;22;20072;-88
2020/12/03 10:46:03;;;;;;;4.60;2.50;;;;;;;;;;6302412;22;20003;-85
2020/12/03 10:48:32;;;;;;;3.30;2.13;;;;;;;;;;6299768;22;20011;-86
2020/12/03 10:50:59;;;;;;;3.22;1.90;;;;;;;;;;6301177;22;20018;-85
2020/12/03 10:53:26;;;;;;;2.47;1.88;;;;;;;;;;6299637;22;20541;-85
2020/12/03 10:56:15;;;;;;;4.43;1.73;;;;;;;;;;6304380;22;20026;-85
2020/12/03 10:59:04;;;;;;;3.97;1.67;;;;;;;;;;6298261;22;20625;-86
2020/12/03 11:01:31;;;;;;;2.25;1.58;;;;;;;;;;6302779;22;20007;-86
2020/12/03 11:03:58;;;;;;;1.65;1.50;;;;;;;;;;6303224;22;20473;-86
2020/12/03 11:06:29;;;;;;;2.20;1.60;;;;;;;;;;6304384;22;19999;-85
2020/12/03 11:08:56;;;;;;;3.33;1.95;;;;;;;;;;6299596;22;20011;-88
2020/12/03 11:11:22;;;;;;;2.55;1.73;;;;;;;;;;6302602;22;20034;-85
2020/12/03 11:13:48;;;;;;;3.47;1.83;;;;;;;;;;6303073;22;20007;-86
2020/12/03 11:16:16;;;;;;;7.78;2.75;;;;;;;;;;6303642;22;20003;-86
2020/12/03 11:18:47;;;;;;;3.42;2.08;;;;;;;;;;6304672;22;20003;-86
2020/12/03 11:21:16;;;;;;;2.53;1.45;;;;;;;;;;6297482;22;20054;-86
2020/12/03 11:23:58;;;;;;;4.35;2.50;;;;;;;;;;6302440;22;20034;-87
2020/12/03 11:26:28;;;;;;;2.15;1.40;;;;;;;;;;6304232;22;20666;-86
2020/12/03 11:28:54;;;;;;;2.40;1.40;;;;;;;;;;6304552;22;20054;-86
2020/12/03 11:31:30;;;;;;;1.60;1.25;;;;;;;;;;6295446;22;20015;-85
2020/12/03 11:33:56;;;;;;;1.50;1.40;;;;;;;;;;6306018;22;20035;-85
2020/12/03 11:36:22;;;;;;;2.20;1.30;;;;;;;;;;6306524;22;20003;-84
2020/12/03 11:38:52;;;;;;;4.85;1.90;;;;;;;;;;6305789;22;20007;-88
2020/12/03 11:41:25;;;;;;;2.40;1.83;;;;;;;;;;6304148;22;20003;-87
2020/12/03 11:49:08;;;;;;;5.50;2.17;;;;;;;;;;6306721;22;20030;-89
2020/12/03 11:51:36;;;;;;;4.38;2.20;;;;;;;;;;6305797;22;20011;-89
2020/12/03 11:54:02;;;;;;;3.22;1.80;;;;;;;;;;6307259;22;20351;-89
2020/12/03 11:56:32;;;;;;;4.85;2.38;;;;;;;;;;6306771;22;20010;-90
2020/12/03 11:59:20;;;;;;;6.22;1.70;;;;;;;;;;6309698;22;20018;-90
2020/12/03 12:01:57;;;;;;;1.52;1.40;;;;;;;;;;6308205;22;20614;-89
2020/12/03 12:07:33;;;;;;;6.18;1.73;;;;;;;;;;6306938;22;20011;-87
2020/12/03 12:12:31;;;;;;;2.85;1.30;;;;;;;;;;6307583;22;20046;-89
2020/12/03 12:14:57;;;;;;;1.63;1.15;;;;;;;;;;6308847;22;20003;-89
2020/12/03 12:17:23;;;;;;;1.98;1.52;;;;;;;;;;6306757;22;20167;-91
2020/12/03 12:19:51;;;;;;;2.00;1.48;;;;;;;;;;6307256;22;20069;-91
2020/12/03 12:22:17;;;;;;;1.48;1.38;;;;;;;;;;6305906;22;20084;-95
2020/12/03 12:24:49;;;;;;;1.80;1.27;;;;;;;;;;6307246;22;20011;-92
2020/12/03 12:27:15;;;;;;;1.27;1.17;;;;;;;;;;6305595;22;20288;-88
2020/12/03 12:29:43;;;;;;;1.95;1.33;;;;;;;;;;6307420;22;20650;-89
2020/12/03 12:32:09;;;;;;;1.48;1.00;;;;;;;;;;6305822;22;20050;-89
2020/12/03 12:34:35;;;;;;;1.30;1.20;;;;;;;;;;6306586;22;20516;-88
2020/12/03 12:37:01;;;;;;;4.10;1.40;;;;;;;;;;6300823;22;20690;-87
2020/12/03 12:39:27;;;;;;;5.28;1.45;;;;;;;;;;6308726;22;20060;-87
2020/12/03 12:41:57;;;;;;;4.90;1.13;;;;;;;;;;6306692;22;20000;-88
2020/12/03 12:44:24;;;;;;;1.33;0.85;;;;;;;;;;6308379;22;20025;-87
2020/12/03 12:46:52;;;;;;;4.03;1.45;;;;;;;;;;6308424;22;20082;-88
2020/12/03 12:49:18;;;;;;;2.55;0.85;;;;;;;;;;6309306;22;19999;-86
2020/12/03 12:51:44;;;;;;;2.45;1.33;;;;;;;;;;6308239;22;20160;-91
2020/12/03 12:54:10;;;;;;;3.15;1.45;;;;;;;;;;6307275;22;20003;-88
2020/12/03 12:56:38;;;;;;;3.13;1.27;;;;;;;;;;6304840;22;20052;-85
2020/12/03 12:59:04;;;;;;;1.63;1.40;;;;;;;;;;6306897;22;20037;-85
2020/12/03 13:01:33;;;;;;;1.38;1.27;;;;;;;;;;6305593;22;20426;-85
2020/12/03 13:03:59;;;;;;;2.20;1.27;;;;;;;;;;6305931;22;20007;-88
2020/12/03 13:06:26;;;;;;;0.85;0.80;;;;;;;;;;6305330;22;20003;-85
2020/12/03 13:08:52;;;;;;;2.22;1.30;;;;;;;;;;6305882;22;20079;-85
2020/12/03 13:11:18;;;;;;;2.88;1.58;;;;;;;;;;6302722;22;20011;-85
2020/12/03 13:13:44;;;;;;;1.63;0.98;;;;;;;;;;6307263;22;20010;-85
2020/12/03 13:16:10;;;;;;;1.90;0.85;;;;;;;;;;6305305;22;20095;-86
2020/12/03 13:18:36;;;;;;;1.85;1.40;;;;;;;;;;6304400;22;20007;-84
2020/12/03 13:21:03;;;;;;;2.95;1.98;;;;;;;;;;6305171;22;20007;-84
2020/12/03 13:23:29;;;;;;;2.15;2.03;;;;;;;;;;6305347;22;20007;-84
2020/12/03 13:25:55;;;;;;;3.08;1.02;;;;;;;;;;6302861;22;20010;-85
2020/12/03 13:28:21;;;;;;;7.97;2.17;;;;;;;;;;6301039;22;20065;-86
2020/12/03 13:30:48;;;;;;;2.05;1.40;;;;;;;;;;6300211;22;20009;-88
2020/12/03 13:33:14;;;;;;;3.17;1.48;;;;;;;;;;6303507;22;20022;-88
2020/12/03 13:35:41;;;;;;;4.40;1.73;;;;;;;;;;6302014;22;20026;-84
2020/12/03 13:38:07;;;;;;;3.55;1.67;;;;;;;;;;6302750;22;20003;-86
2020/12/03 13:40:33;;;;;;;4.07;1.80;;;;;;;;;;6303380;22;20075;-85
2020/12/03 13:42:59;;;;;;;3.78;1.40;;;;;;;;;;6304989;22;20511;-87
2020/12/03 13:45:25;;;;;;;7.85;1.65;;;;;;;;;;6304822;22;20394;-88
2020/12/03 13:47:51;;;;;;;2.88;1.90;;;;;;;;;;6301873;22;20334;-88
2020/12/03 13:50:17;;;;;;;3.20;1.45;;;;;;;;;;6305235;22;20391;-88
2020/12/03 13:52:43;;;;;;;2.03;1.40;;;;;;;;;;6306130;22;20004;-89
2020/12/03 13:55:10;;;;;;;2.17;1.95;;;;;;;;;;6305406;22;20003;-88
2020/12/03 13:57:36;;;;;;;3.53;1.58;;;;;;;;;;6303987;22;20013;-86
2020/12/03 14:00:03;;;;;;;1.48;1.25;;;;;;;;;;6304694;22;20052;-88
2020/12/03 14:02:31;;;;;;;1.80;1.05;;;;;;;;;;6298442;22;20007;-85
2020/12/03 14:04:57;;;;;;;3.65;2.08;;;;;;;;;;6299493;22;20082;-85
2020/12/03 14:07:23;;;;;;;2.40;1.42;;;;;;;;;;6297951;22;20017;-87
2020/12/03 14:09:49;;;;;;;5.60;2.05;;;;;;;;;;6302802;22;20064;-86
2020/12/03 14:12:15;;;;;;;2.83;1.70;;;;;;;;;;6303583;22;20073;-87
2020/12/03 14:14:45;;;;;;;1.45;1.30;;;;;;;;;;6301802;22;20003;-85
2020/12/03 14:17:11;;;;;;;2.17;1.60;;;;;;;;;;6301563;22;20007;-87
2020/12/03 14:19:37;;;;;;;1.95;1.33;;;;;;;;;;6304996;22;20006;-87
2020/12/03 14:22:03;;;;;;;2.38;1.30;;;;;;;;;;6304829;22;20037;-87
2020/12/03 14:24:29;;;;;;;3.05;1.42;;;;;;;;;;6303037;22;20027;-88
2020/12/03 14:26:55;;;;;;;1.38;0.70;;;;;;;;;;6304371;22;20008;-87
2020/12/03 14:29:21;;;;;;;1.65;1.20;;;;;;;;;;6303864;22;20058;-87
2020/12/03 14:31:48;;;;;;;1.73;1.35;;;;;;;;;;6305691;22;20007;-87
2020/12/03 14:34:14;;;;;;;2.20;1.65;;;;;;;;;;6304337;22;20010;-85
2020/12/03 14:36:40;;;;;;;3.03;1.65;;;;;;;;;;6304154;22;20433;-87
2020/12/03 14:39:06;;;;;;;6.53;1.77;;;;;;;;;;6301598;22;20014;-86
2020/12/03 14:41:32;;;;;;;1.33;1.23;;;;;;;;;;6305421;22;20010;-85
2020/12/03 14:43:58;;;;;;;3.95;1.50;;;;;;;;;;6304196;22;20003;-87
2020/12/03 14:46:25;;;;;;;5.75;1.63;;;;;;;;;;6303887;22;20327;-86
2020/12/03 14:48:52;;;;;;;2.25;2.05;;;;;;;;;;6303178;22;20007;-88
2020/12/03 14:51:18;;;;;;;2.25;1.30;;;;;;;;;;6303926;22;20015;-86
2020/12/03 14:53:44;;;;;;;2.63;1.33;;;;;;;;;;6304680;22;20117;-87
2020/12/03 14:56:10;;;;;;;2.58;1.50;;;;;;;;;;6303699;22;20426;-87
2020/12/03 14:58:37;;;;;;;3.75;1.02;;;;;;;;;;6300536;22;20045;-87
2020/12/03 15:01:05;;;;;;;2.45;1.52;;;;;;;;;;6303424;22;20045;-85
2020/12/03 15:03:31;;;;;;;1.73;1.13;;;;;;;;;;6305207;22;19999;-88
2020/12/03 15:05:57;;;;;;;1.50;1.20;;;;;;;;;;6307998;22;20320;-87
2020/12/03 15:08:23;;;;;;;3.20;1.15;;;;;;;;;;6303148;22;20011;-86